sensor_id;sensor_type;location;lat;lon;timestamp;P1;durP1;ratioP1;P2;durP2;ratioP2
28086;SDS011;15392;48.912;8.380;2022-08-19T00:01:32;2.40;;;2.30;;
28086;SDS011;15392;48.912;8.380;2022-08-19T00:04:02;2.50;;;2.40;;
28086;SDS011;15392;48.912;8.380;2022-08-19T00:06:31;2.40;;;2.30;;
28086;SDS011;15392;48.912;8.380;2022-08-19T00:09:00;2.20;;;2.10;;
28086;SDS011;15392;48.912;8.380;2022-08-19T00:11:30;2.30;;;2.20;;
28086;SDS011;15392;48.912;8.380;2022-08-19T00:13:55;1.80;;;1.80;;
28086;SDS011;15392;48.912;8.380;2022-08-19T00:16:22;2.30;;;2.10;;
28086;SDS011;15392;48.912;8.380;2022-08-19T00:18:50;2.50;;;2.40;;
28086;SDS011;15392;48.912;8.380;2022-08-19T00:21:15;2.33;;;2.22;;
28086;SDS011;15392;48.912;8.380;2022-08-19T00:23:42;2.40;;;2.30;;
28086;SDS011;15392;48.912;8.380;2022-08-19T00:26:08;2.00;;;2.00;;
28086;SDS011;15392;48.912;8.380;2022-08-19T00:28:35;2.08;;;2.08;;
28086;SDS011;15392;48.912;8.380;2022-08-19T00:31:03;2.10;;;2.10;;
28086;SDS011;15392;48.912;8.380;2022-08-19T00:33:30;1.92;;;1.92;;
28086;SDS011;15392;48.912;8.380;2022-08-19T00:36:00;1.98;;;1.98;;
28086;SDS011;15392;48.912;8.380;2022-08-19T00:38:29;2.10;;;2.08;;
28086;SDS011;15392;48.912;8.380;2022-08-19T00:40:55;2.10;;;2.00;;
28086;SDS011;15392;48.912;8.380;2022-08-19T00:43:22;1.92;;;1.92;;
28086;SDS011;15392;48.912;8.380;2022-08-19T00:45:51;2.00;;;1.98;;
28086;SDS011;15392;48.912;8.380;2022-08-19T00:48:17;2.13;;;2.10;;
28086;SDS011;15392;48.912;8.380;2022-08-19T00:50:45;1.90;;;1.90;;
28086;SDS011;15392;48.912;8.380;2022-08-19T00:53:14;1.90;;;1.90;;
28086;SDS011;15392;48.912;8.380;2022-08-19T00:55:45;2.00;;;2.00;;
28086;SDS011;15392;48.912;8.380;2022-08-19T00:58:14;2.08;;;1.98;;
28086;SDS011;15392;48.912;8.380;2022-08-19T01:00:46;2.20;;;2.20;;
28086;SDS011;15392;48.912;8.380;2022-08-19T01:03:15;2.10;;;2.00;;
28086;SDS011;15392;48.912;8.380;2022-08-19T01:05:45;2.47;;;2.38;;
28086;SDS011;15392;48.912;8.380;2022-08-19T01:08:13;2.38;;;2.28;;
28086;SDS011;15392;48.912;8.380;2022-08-19T01:10:45;3.17;;;2.20;;
28086;SDS011;15392;48.912;8.380;2022-08-19T01:13:15;2.20;;;2.10;;
28086;SDS011;15392;48.912;8.380;2022-08-19T01:16:18;2.50;;;2.40;;
28086;SDS011;15392;48.912;8.380;2022-08-19T01:18:38;1.77;;;1.77;;
28086;SDS011;15392;48.912;8.380;2022-08-19T01:23:49;1.90;;;1.80;;
28086;SDS011;15392;48.912;8.380;2022-08-19T01:26:17;2.03;;;2.00;;
28086;SDS011;15392;48.912;8.380;2022-08-19T01:28:47;2.38;;;2.30;;
28086;SDS011;15392;48.912;8.380;2022-08-19T01:31:18;2.20;;;2.20;;
28086;SDS011;15392;48.912;8.380;2022-08-19T01:33:51;2.30;;;2.20;;
28086;SDS011;15392;48.912;8.380;2022-08-19T01:36:22;1.90;;;1.90;;
28086;SDS011;15392;48.912;8.380;2022-08-19T01:38:53;2.03;;;2.00;;
28086;SDS011;15392;48.912;8.380;2022-08-19T01:41:19;2.38;;;2.25;;
28086;SDS011;15392;48.912;8.380;2022-08-19T01:43:45;2.50;;;2.40;;
28086;SDS011;15392;48.912;8.380;2022-08-19T01:46:11;2.15;;;2.05;;
28086;SDS011;15392;48.912;8.380;2022-08-19T01:48:38;1.85;;;1.85;;
28086;SDS011;15392;48.912;8.380;2022-08-19T01:51:07;2.30;;;2.20;;
28086;SDS011;15392;48.912;8.380;2022-08-19T01:53:34;2.17;;;2.08;;
28086;SDS011;15392;48.912;8.380;2022-08-19T01:56:01;2.25;;;2.17;;
28086;SDS011;15392;48.912;8.380;2022-08-19T01:58:32;2.40;;;2.30;;
28086;SDS011;15392;48.912;8.380;2022-08-19T02:01:04;2.30;;;2.20;;
28086;SDS011;15392;48.912;8.380;2022-08-19T02:03:31;2.35;;;2.25;;
28086;SDS011;15392;48.912;8.380;2022-08-19T02:06:00;2.22;;;2.20;;
28086;SDS011;15392;48.912;8.380;2022-08-19T02:08:29;2.10;;;2.10;;
28086;SDS011;15392;48.912;8.380;2022-08-19T02:10:56;2.42;;;2.30;;
28086;SDS011;15392;48.912;8.380;2022-08-19T02:13:22;2.35;;;2.28;;
28086;SDS011;15392;48.912;8.380;2022-08-19T02:15:49;2.28;;;2.17;;
28086;SDS011;15392;48.912;8.380;2022-08-19T02:18:15;2.20;;;2.10;;
28086;SDS011;15392;48.912;8.380;2022-08-19T02:20:41;2.58;;;2.47;;
28086;SDS011;15392;48.912;8.380;2022-08-19T02:23:10;2.17;;;2.10;;
28086;SDS011;15392;48.912;8.380;2022-08-19T02:25:37;2.40;;;2.30;;
28086;SDS011;15392;48.912;8.380;2022-08-19T02:28:04;2.58;;;2.45;;
28086;SDS011;15392;48.912;8.380;2022-08-19T02:30:30;2.67;;;2.47;;
28086;SDS011;15392;48.912;8.380;2022-08-19T02:32:56;2.55;;;2.45;;
28086;SDS011;15392;48.912;8.380;2022-08-19T02:35:22;2.70;;;2.60;;
28086;SDS011;15392;48.912;8.380;2022-08-19T02:37:48;2.53;;;2.42;;
28086;SDS011;15392;48.912;8.380;2022-08-19T02:40:33;2.47;;;2.38;;
28086;SDS011;15392;48.912;8.380;2022-08-19T02:43:00;2.53;;;2.42;;
28086;SDS011;15392;48.912;8.380;2022-08-19T02:45:31;2.47;;;2.38;;
28086;SDS011;15392;48.912;8.380;2022-08-19T02:47:59;2.33;;;2.22;;
28086;SDS011;15392;48.912;8.380;2022-08-19T02:50:25;2.67;;;2.58;;
28086;SDS011;15392;48.912;8.380;2022-08-19T02:52:51;2.67;;;2.58;;
28086;SDS011;15392;48.912;8.380;2022-08-19T02:55:16;2.60;;;2.50;;
28086;SDS011;15392;48.912;8.380;2022-08-19T02:57:42;2.22;;;2.15;;
28086;SDS011;15392;48.912;8.380;2022-08-19T03:00:08;2.63;;;2.42;;
28086;SDS011;15392;48.912;8.380;2022-08-19T03:02:37;2.40;;;2.28;;
28086;SDS011;15392;48.912;8.380;2022-08-19T03:05:06;2.75;;;2.60;;
28086;SDS011;15392;48.912;8.380;2022-08-19T03:07:34;2.80;;;2.70;;
28086;SDS011;15392;48.912;8.380;2022-08-19T03:10:01;2.78;;;2.67;;
28086;SDS011;15392;48.912;8.380;2022-08-19T03:12:28;2.40;;;2.30;;
28086;SDS011;15392;48.912;8.380;2022-08-19T03:14:53;3.10;;;3.00;;
28086;SDS011;15392;48.912;8.380;2022-08-19T03:17:19;2.80;;;2.70;;
28086;SDS011;15392;48.912;8.380;2022-08-19T03:19:45;2.65;;;2.55;;
28086;SDS011;15392;48.912;8.380;2022-08-19T03:22:11;2.88;;;2.78;;
28086;SDS011;15392;48.912;8.380;2022-08-19T03:24:37;2.78;;;2.67;;
28086;SDS011;15392;48.912;8.380;2022-08-19T03:27:03;3.10;;;3.00;;
28086;SDS011;15392;48.912;8.380;2022-08-19T03:29:30;2.97;;;2.88;;
28086;SDS011;15392;48.912;8.380;2022-08-19T03:32:00;3.05;;;2.85;;
28086;SDS011;15392;48.912;8.380;2022-08-19T03:34:30;2.80;;;2.70;;
28086;SDS011;15392;48.912;8.380;2022-08-19T03:37:02;3.30;;;3.20;;
28086;SDS011;15392;48.912;8.380;2022-08-19T03:39:37;3.08;;;2.97;;
28086;SDS011;15392;48.912;8.380;2022-08-19T03:42:05;2.97;;;2.88;;
28086;SDS011;15392;48.912;8.380;2022-08-19T03:44:31;2.85;;;2.75;;
28086;SDS011;15392;48.912;8.380;2022-08-19T03:46:58;2.78;;;2.67;;
28086;SDS011;15392;48.912;8.380;2022-08-19T03:49:26;2.67;;;2.58;;
28086;SDS011;15392;48.912;8.380;2022-08-19T03:51:56;2.92;;;2.83;;
28086;SDS011;15392;48.912;8.380;2022-08-19T03:54:24;2.55;;;2.47;;
28086;SDS011;15392;48.912;8.380;2022-08-19T03:56:52;2.80;;;2.70;;
28086;SDS011;15392;48.912;8.380;2022-08-19T03:59:25;2.70;;;2.60;;
28086;SDS011;15392;48.912;8.380;2022-08-19T04:01:55;2.90;;;2.80;;
28086;SDS011;15392;48.912;8.380;2022-08-19T04:04:24;2.83;;;2.72;;
28086;SDS011;15392;48.912;8.380;2022-08-19T04:06:51;2.92;;;2.83;;
28086;SDS011;15392;48.912;8.380;2022-08-19T04:09:18;2.67;;;2.58;;
28086;SDS011;15392;48.912;8.380;2022-08-19T04:11:49;2.80;;;2.70;;
28086;SDS011;15392;48.912;8.380;2022-08-19T04:14:21;2.90;;;2.80;;
28086;SDS011;15392;48.912;8.380;2022-08-19T04:19:17;2.55;;;2.45;;
28086;SDS011;15392;48.912;8.380;2022-08-19T04:21:47;2.60;;;2.50;;
28086;SDS011;15392;48.912;8.380;2022-08-19T04:24:16;3.20;;;3.10;;
28086;SDS011;15392;48.912;8.380;2022-08-19T04:26:43;3.00;;;2.90;;
28086;SDS011;15392;48.912;8.380;2022-08-19T04:29:14;2.90;;;2.80;;
28086;SDS011;15392;48.912;8.380;2022-08-19T04:31:47;3.00;;;2.90;;
28086;SDS011;15392;48.912;8.380;2022-08-19T04:34:15;2.85;;;2.75;;
28086;SDS011;15392;48.912;8.380;2022-08-19T04:36:43;2.75;;;2.65;;
28086;SDS011;15392;48.912;8.380;2022-08-19T04:39:16;3.25;;;3.15;;
28086;SDS011;15392;48.912;8.380;2022-08-19T04:42:13;2.67;;;2.58;;
28086;SDS011;15392;48.912;8.380;2022-08-19T04:44:59;3.05;;;2.95;;
28086;SDS011;15392;48.912;8.380;2022-08-19T04:47:25;2.97;;;2.88;;
28086;SDS011;15392;48.912;8.380;2022-08-19T04:49:51;3.38;;;2.97;;
28086;SDS011;15392;48.912;8.380;2022-08-19T04:52:17;2.80;;;2.70;;
28086;SDS011;15392;48.912;8.380;2022-08-19T04:54:42;3.10;;;3.00;;
28086;SDS011;15392;48.912;8.380;2022-08-19T04:57:09;3.33;;;3.22;;
28086;SDS011;15392;48.912;8.380;2022-08-19T04:59:36;3.22;;;3.13;;
28086;SDS011;15392;48.912;8.380;2022-08-19T05:02:03;3.30;;;3.20;;
28086;SDS011;15392;48.912;8.380;2022-08-19T05:04:29;3.17;;;3.08;;
28086;SDS011;15392;48.912;8.380;2022-08-19T05:06:56;3.20;;;3.10;;
28086;SDS011;15392;48.912;8.380;2022-08-19T05:09:22;3.47;;;3.28;;
28086;SDS011;15392;48.912;8.380;2022-08-19T05:11:48;2.90;;;2.80;;
28086;SDS011;15392;48.912;8.380;2022-08-19T05:14:15;3.15;;;3.05;;
28086;SDS011;15392;48.912;8.380;2022-08-19T05:16:41;3.80;;;3.60;;
28086;SDS011;15392;48.912;8.380;2022-08-19T05:19:07;3.50;;;3.25;;
28086;SDS011;15392;48.912;8.380;2022-08-19T05:21:51;3.38;;;3.28;;
28086;SDS011;15392;48.912;8.380;2022-08-19T05:24:36;3.65;;;3.55;;
28086;SDS011;15392;48.912;8.380;2022-08-19T05:27:02;3.92;;;3.83;;
28086;SDS011;15392;48.912;8.380;2022-08-19T05:29:31;3.08;;;2.97;;
28086;SDS011;15392;48.912;8.380;2022-08-19T05:32:00;3.75;;;3.55;;
28086;SDS011;15392;48.912;8.380;2022-08-19T05:34:30;3.60;;;3.40;;
28086;SDS011;15392;48.912;8.380;2022-08-19T05:36:58;3.78;;;3.67;;
28086;SDS011;15392;48.912;8.380;2022-08-19T05:39:25;3.80;;;3.70;;
28086;SDS011;15392;48.912;8.380;2022-08-19T05:41:58;3.75;;;3.65;;
28086;SDS011;15392;48.912;8.380;2022-08-19T05:44:30;2.92;;;2.83;;
28086;SDS011;15392;48.912;8.380;2022-08-19T05:49:27;3.10;;;3.00;;
28086;SDS011;15392;48.912;8.380;2022-08-19T05:51:54;3.90;;;3.70;;
28086;SDS011;15392;48.912;8.380;2022-08-19T05:54:21;3.30;;;3.20;;
28086;SDS011;15392;48.912;8.380;2022-08-19T05:56:48;3.33;;;3.22;;
28086;SDS011;15392;48.912;8.380;2022-08-19T05:59:17;3.35;;;3.25;;
28086;SDS011;15392;48.912;8.380;2022-08-19T06:01:45;3.72;;;3.60;;
28086;SDS011;15392;48.912;8.380;2022-08-19T06:04:15;3.70;;;3.60;;
28086;SDS011;15392;48.912;8.380;2022-08-19T06:06:49;3.50;;;3.30;;
28086;SDS011;15392;48.912;8.380;2022-08-19T06:09:17;3.17;;;3.08;;
28086;SDS011;15392;48.912;8.380;2022-08-19T06:11:45;3.15;;;3.05;;
28086;SDS011;15392;48.912;8.380;2022-08-19T06:14:21;3.60;;;3.40;;
28086;SDS011;15392;48.912;8.380;2022-08-19T06:16:51;3.90;;;3.60;;
28086;SDS011;15392;48.912;8.380;2022-08-19T06:19:18;4.13;;;3.50;;
28086;SDS011;15392;48.912;8.380;2022-08-19T06:21:48;3.78;;;3.55;;
28086;SDS011;15392;48.912;8.380;2022-08-19T06:24:17;3.60;;;3.40;;
28086;SDS011;15392;48.912;8.380;2022-08-19T06:26:48;3.65;;;3.55;;
28086;SDS011;15392;48.912;8.380;2022-08-19T06:29:55;3.38;;;3.28;;
28086;SDS011;15392;48.912;8.380;2022-08-19T06:32:58;3.22;;;3.13;;
28086;SDS011;15392;48.912;8.380;2022-08-19T06:36:04;3.42;;;3.33;;
28086;SDS011;15392;48.912;8.380;2022-08-19T06:39:12;3.38;;;3.28;;
28086;SDS011;15392;48.912;8.380;2022-08-19T06:42:30;3.30;;;3.20;;
28086;SDS011;15392;48.912;8.380;2022-08-19T06:45:37;3.40;;;3.30;;
28086;SDS011;15392;48.912;8.380;2022-08-19T06:48:44;3.35;;;3.25;;
28086;SDS011;15392;48.912;8.380;2022-08-19T06:51:51;2.75;;;2.65;;
28086;SDS011;15392;48.912;8.380;2022-08-19T06:54:57;3.80;;;3.45;;
28086;SDS011;15392;48.912;8.380;2022-08-19T06:58:04;4.15;;;3.85;;
28086;SDS011;15392;48.912;8.380;2022-08-19T07:01:11;3.53;;;3.38;;
28086;SDS011;15392;48.912;8.380;2022-08-19T07:04:19;3.30;;;3.20;;
28086;SDS011;15392;48.912;8.380;2022-08-19T07:07:29;3.13;;;3.03;;
28086;SDS011;15392;48.912;8.380;2022-08-19T07:10:37;3.42;;;3.33;;
28086;SDS011;15392;48.912;8.380;2022-08-19T07:13:43;3.50;;;3.40;;
28086;SDS011;15392;48.912;8.380;2022-08-19T07:16:54;3.53;;;3.40;;
28086;SDS011;15392;48.912;8.380;2022-08-19T07:20:02;3.30;;;3.20;;
28086;SDS011;15392;48.912;8.380;2022-08-19T07:23:09;3.22;;;3.03;;
28086;SDS011;15392;48.912;8.380;2022-08-19T07:26:30;3.60;;;3.50;;
28086;SDS011;15392;48.912;8.380;2022-08-19T07:29:39;3.28;;;3.17;;
28086;SDS011;15392;48.912;8.380;2022-08-19T07:32:45;3.08;;;2.97;;
28086;SDS011;15392;48.912;8.380;2022-08-19T07:35:52;3.35;;;3.25;;
28086;SDS011;15392;48.912;8.380;2022-08-19T07:38:59;3.17;;;3.08;;
28086;SDS011;15392;48.912;8.380;2022-08-19T07:42:13;3.28;;;3.17;;
28086;SDS011;15392;48.912;8.380;2022-08-19T07:45:20;3.28;;;3.17;;
28086;SDS011;15392;48.912;8.380;2022-08-19T07:48:27;3.10;;;3.00;;
28086;SDS011;15392;48.912;8.380;2022-08-19T07:51:34;2.83;;;2.72;;
28086;SDS011;15392;48.912;8.380;2022-08-19T07:54:40;2.88;;;2.78;;
28086;SDS011;15392;48.912;8.380;2022-08-19T07:57:47;3.05;;;2.95;;
28086;SDS011;15392;48.912;8.380;2022-08-19T08:00:53;2.95;;;2.85;;
28086;SDS011;15392;48.912;8.380;2022-08-19T08:04:05;3.47;;;3.30;;
28086;SDS011;15392;48.912;8.380;2022-08-19T08:07:33;3.25;;;3.15;;
28086;SDS011;15392;48.912;8.380;2022-08-19T08:10:58;3.22;;;3.13;;
28086;SDS011;15392;48.912;8.380;2022-08-19T08:14:05;2.67;;;2.58;;
28086;SDS011;15392;48.912;8.380;2022-08-19T08:17:13;3.13;;;3.03;;
28086;SDS011;15392;48.912;8.380;2022-08-19T08:20:21;2.95;;;2.75;;
28086;SDS011;15392;48.912;8.380;2022-08-19T08:23:27;2.90;;;2.78;;
28086;SDS011;15392;48.912;8.380;2022-08-19T08:26:35;3.00;;;2.90;;
28086;SDS011;15392;48.912;8.380;2022-08-19T08:29:42;2.70;;;2.60;;
28086;SDS011;15392;48.912;8.380;2022-08-19T08:32:50;2.92;;;2.83;;
28086;SDS011;15392;48.912;8.380;2022-08-19T08:35:57;2.30;;;2.25;;
28086;SDS011;15392;48.912;8.380;2022-08-19T08:39:03;2.60;;;2.50;;
28086;SDS011;15392;48.912;8.380;2022-08-19T08:42:15;2.50;;;2.40;;
28086;SDS011;15392;48.912;8.380;2022-08-19T08:45:35;2.20;;;2.10;;
28086;SDS011;15392;48.912;8.380;2022-08-19T08:48:51;2.10;;;2.00;;
28086;SDS011;15392;48.912;8.380;2022-08-19T08:52:10;2.33;;;2.22;;
28086;SDS011;15392;48.912;8.380;2022-08-19T08:55:41;2.33;;;2.22;;
28086;SDS011;15392;48.912;8.380;2022-08-19T09:02:27;1.90;;;1.80;;
28086;SDS011;15392;48.912;8.380;2022-08-19T09:05:47;2.00;;;1.90;;
28086;SDS011;15392;48.912;8.380;2022-08-19T09:09:43;1.73;;;1.70;;
28086;SDS011;15392;48.912;8.380;2022-08-19T09:12:58;1.83;;;1.80;;
28086;SDS011;15392;48.912;8.380;2022-08-19T09:16:19;1.65;;;1.60;;
28086;SDS011;15392;48.912;8.380;2022-08-19T09:19:31;1.58;;;1.58;;
28086;SDS011;15392;48.912;8.380;2022-08-19T09:22:39;1.75;;;1.65;;
28086;SDS011;15392;48.912;8.380;2022-08-19T09:25:49;1.42;;;1.42;;
28086;SDS011;15392;48.912;8.380;2022-08-19T09:28:56;1.58;;;1.15;;
28086;SDS011;15392;48.912;8.380;2022-08-19T09:32:03;1.85;;;1.75;;
28086;SDS011;15392;48.912;8.380;2022-08-19T09:35:10;1.38;;;1.38;;
28086;SDS011;15392;48.912;8.380;2022-08-19T09:38:18;1.20;;;1.20;;
28086;SDS011;15392;48.912;8.380;2022-08-19T09:41:24;1.27;;;1.27;;
28086;SDS011;15392;48.912;8.380;2022-08-19T09:44:31;1.63;;;1.52;;
28086;SDS011;15392;48.912;8.380;2022-08-19T09:47:39;1.70;;;1.60;;
28086;SDS011;15392;48.912;8.380;2022-08-19T09:50:45;1.33;;;1.33;;
28086;SDS011;15392;48.912;8.380;2022-08-19T09:53:51;1.27;;;1.27;;
28086;SDS011;15392;48.912;8.380;2022-08-19T09:57:02;1.65;;;1.65;;
28086;SDS011;15392;48.912;8.380;2022-08-19T10:00:09;1.95;;;1.50;;
28086;SDS011;15392;48.912;8.380;2022-08-19T10:03:16;1.35;;;1.35;;
28086;SDS011;15392;48.912;8.380;2022-08-19T10:06:23;1.13;;;1.10;;
28086;SDS011;15392;48.912;8.380;2022-08-19T10:09:35;1.35;;;1.35;;
28086;SDS011;15392;48.912;8.380;2022-08-19T10:12:41;1.70;;;1.60;;
28086;SDS011;15392;48.912;8.380;2022-08-19T10:15:53;1.05;;;1.00;;
28086;SDS011;15392;48.912;8.380;2022-08-19T10:22:09;0.95;;;0.95;;
28086;SDS011;15392;48.912;8.380;2022-08-19T10:25:19;1.13;;;1.13;;
28086;SDS011;15392;48.912;8.380;2022-08-19T10:28:26;1.13;;;1.13;;
28086;SDS011;15392;48.912;8.380;2022-08-19T10:31:33;1.45;;;1.30;;
28086;SDS011;15392;48.912;8.380;2022-08-19T10:34:40;1.05;;;1.05;;
28086;SDS011;15392;48.912;8.380;2022-08-19T10:37:46;1.30;;;1.30;;
28086;SDS011;15392;48.912;8.380;2022-08-19T10:40:53;1.20;;;1.20;;
28086;SDS011;15392;48.912;8.380;2022-08-19T10:44:02;1.52;;;1.02;;
28086;SDS011;15392;48.912;8.380;2022-08-19T10:47:12;1.10;;;1.10;;
28086;SDS011;15392;48.912;8.380;2022-08-19T10:50:18;1.20;;;1.20;;
28086;SDS011;15392;48.912;8.380;2022-08-19T10:53:43;1.25;;;1.25;;
28086;SDS011;15392;48.912;8.380;2022-08-19T10:56:49;1.10;;;1.10;;
28086;SDS011;15392;48.912;8.380;2022-08-19T10:59:58;1.05;;;1.05;;
28086;SDS011;15392;48.912;8.380;2022-08-19T11:03:05;1.20;;;1.20;;
28086;SDS011;15392;48.912;8.380;2022-08-19T11:06:11;1.13;;;1.02;;
28086;SDS011;15392;48.912;8.380;2022-08-19T11:09:19;1.10;;;1.10;;
28086;SDS011;15392;48.912;8.380;2022-08-19T11:12:31;1.00;;;1.00;;
28086;SDS011;15392;48.912;8.380;2022-08-19T11:15:38;0.98;;;0.98;;
28086;SDS011;15392;48.912;8.380;2022-08-19T11:18:46;0.90;;;0.90;;
28086;SDS011;15392;48.912;8.380;2022-08-19T11:21:56;1.13;;;1.13;;
28086;SDS011;15392;48.912;8.380;2022-08-19T11:25:03;1.10;;;1.10;;
28086;SDS011;15392;48.912;8.380;2022-08-19T11:28:10;1.40;;;1.40;;
28086;SDS011;15392;48.912;8.380;2022-08-19T11:31:19;1.20;;;1.20;;
28086;SDS011;15392;48.912;8.380;2022-08-19T11:34:27;1.10;;;1.10;;
28086;SDS011;15392;48.912;8.380;2022-08-19T11:37:34;1.27;;;1.27;;
28086;SDS011;15392;48.912;8.380;2022-08-19T11:40:43;1.33;;;1.00;;
28086;SDS011;15392;48.912;8.380;2022-08-19T11:43:50;0.90;;;0.90;;
28086;SDS011;15392;48.912;8.380;2022-08-19T11:46:59;1.35;;;1.35;;
28086;SDS011;15392;48.912;8.380;2022-08-19T11:50:06;1.17;;;1.15;;
28086;SDS011;15392;48.912;8.380;2022-08-19T11:53:13;0.90;;;0.90;;
28086;SDS011;15392;48.912;8.380;2022-08-19T11:56:19;1.10;;;1.10;;
28086;SDS011;15392;48.912;8.380;2022-08-19T11:59:26;1.13;;;1.13;;
28086;SDS011;15392;48.912;8.380;2022-08-19T12:02:33;0.82;;;0.82;;
28086;SDS011;15392;48.912;8.380;2022-08-19T12:05:39;1.20;;;1.20;;
28086;SDS011;15392;48.912;8.380;2022-08-19T12:08:46;0.95;;;0.95;;
28086;SDS011;15392;48.912;8.380;2022-08-19T12:11:53;1.10;;;1.10;;
28086;SDS011;15392;48.912;8.380;2022-08-19T12:14:59;1.05;;;1.05;;
28086;SDS011;15392;48.912;8.380;2022-08-19T12:18:07;1.00;;;1.00;;
28086;SDS011;15392;48.912;8.380;2022-08-19T12:21:15;1.30;;;1.30;;
28086;SDS011;15392;48.912;8.380;2022-08-19T12:24:30;1.08;;;1.08;;
28086;SDS011;15392;48.912;8.380;2022-08-19T12:27:37;1.17;;;1.17;;
28086;SDS011;15392;48.912;8.380;2022-08-19T12:30:44;1.60;;;0.98;;
28086;SDS011;15392;48.912;8.380;2022-08-19T12:33:52;1.10;;;1.10;;
28086;SDS011;15392;48.912;8.380;2022-08-19T12:36:58;0.85;;;0.85;;
28086;SDS011;15392;48.912;8.380;2022-08-19T12:40:09;1.35;;;1.10;;
28086;SDS011;15392;48.912;8.380;2022-08-19T12:43:17;0.90;;;0.90;;
28086;SDS011;15392;48.912;8.380;2022-08-19T12:46:25;1.30;;;1.20;;
28086;SDS011;15392;48.912;8.380;2022-08-19T12:49:32;1.00;;;1.00;;
28086;SDS011;15392;48.912;8.380;2022-08-19T12:52:39;0.90;;;0.90;;
28086;SDS011;15392;48.912;8.380;2022-08-19T12:55:47;1.10;;;1.10;;
28086;SDS011;15392;48.912;8.380;2022-08-19T12:59:02;1.25;;;1.25;;
28086;SDS011;15392;48.912;8.380;2022-08-19T13:02:10;1.23;;;1.23;;
28086;SDS011;15392;48.912;8.380;2022-08-19T13:05:18;1.40;;;1.30;;
28086;SDS011;15392;48.912;8.380;2022-08-19T13:08:30;1.13;;;1.13;;
28086;SDS011;15392;48.912;8.380;2022-08-19T13:11:37;1.25;;;1.25;;
28086;SDS011;15392;48.912;8.380;2022-08-19T13:14:44;1.30;;;1.30;;
28086;SDS011;15392;48.912;8.380;2022-08-19T13:17:52;1.05;;;1.05;;
28086;SDS011;15392;48.912;8.380;2022-08-19T13:21:06;1.27;;;1.27;;
28086;SDS011;15392;48.912;8.380;2022-08-19T13:24:14;1.17;;;1.17;;
28086;SDS011;15392;48.912;8.380;2022-08-19T13:27:21;1.45;;;1.15;;
28086;SDS011;15392;48.912;8.380;2022-08-19T13:30:27;1.10;;;1.10;;
28086;SDS011;15392;48.912;8.380;2022-08-19T13:34:00;1.02;;;1.02;;
28086;SDS011;15392;48.912;8.380;2022-08-19T13:37:06;0.90;;;0.90;;
28086;SDS011;15392;48.912;8.380;2022-08-19T13:40:15;0.90;;;0.90;;
28086;SDS011;15392;48.912;8.380;2022-08-19T13:43:25;0.80;;;0.80;;
28086;SDS011;15392;48.912;8.380;2022-08-19T13:46:32;0.70;;;0.70;;
28086;SDS011;15392;48.912;8.380;2022-08-19T13:49:38;0.60;;;0.60;;
28086;SDS011;15392;48.912;8.380;2022-08-19T13:52:45;0.50;;;0.50;;
28086;SDS011;15392;48.912;8.380;2022-08-19T13:55:53;0.60;;;0.60;;
28086;SDS011;15392;48.912;8.380;2022-08-19T13:58:59;0.60;;;0.60;;
28086;SDS011;15392;48.912;8.380;2022-08-19T14:02:06;0.45;;;0.45;;
28086;SDS011;15392;48.912;8.380;2022-08-19T14:05:14;0.40;;;0.40;;
28086;SDS011;15392;48.912;8.380;2022-08-19T14:08:21;0.50;;;0.50;;
28086;SDS011;15392;48.912;8.380;2022-08-19T14:11:29;0.60;;;0.60;;
28086;SDS011;15392;48.912;8.380;2022-08-19T14:14:36;1.95;;;0.52;;
28086;SDS011;15392;48.912;8.380;2022-08-19T14:17:44;0.32;;;0.32;;
28086;SDS011;15392;48.912;8.380;2022-08-19T14:20:54;0.43;;;0.43;;
28086;SDS011;15392;48.912;8.380;2022-08-19T14:24:01;0.50;;;0.50;;
28086;SDS011;15392;48.912;8.380;2022-08-19T14:27:09;0.50;;;0.50;;
28086;SDS011;15392;48.912;8.380;2022-08-19T14:30:17;0.40;;;0.40;;
28086;SDS011;15392;48.912;8.380;2022-08-19T14:33:27;0.50;;;0.50;;
28086;SDS011;15392;48.912;8.380;2022-08-19T14:36:34;0.57;;;0.57;;
28086;SDS011;15392;48.912;8.380;2022-08-19T14:39:41;0.68;;;0.68;;
28086;SDS011;15392;48.912;8.380;2022-08-19T14:42:47;0.65;;;0.65;;
28086;SDS011;15392;48.912;8.380;2022-08-19T14:45:54;0.75;;;0.70;;
28086;SDS011;15392;48.912;8.380;2022-08-19T14:49:02;0.52;;;0.52;;
28086;SDS011;15392;48.912;8.380;2022-08-19T14:52:08;0.63;;;0.63;;
28086;SDS011;15392;48.912;8.380;2022-08-19T14:55:15;0.60;;;0.60;;
28086;SDS011;15392;48.912;8.380;2022-08-19T14:58:23;0.60;;;0.60;;
28086;SDS011;15392;48.912;8.380;2022-08-19T15:01:29;0.75;;;0.75;;
28086;SDS011;15392;48.912;8.380;2022-08-19T15:04:35;0.80;;;0.80;;
28086;SDS011;15392;48.912;8.380;2022-08-19T15:07:42;0.57;;;0.57;;
28086;SDS011;15392;48.912;8.380;2022-08-19T15:10:49;0.68;;;0.68;;
28086;SDS011;15392;48.912;8.380;2022-08-19T15:13:55;0.57;;;0.57;;
28086;SDS011;15392;48.912;8.380;2022-08-19T15:17:03;0.60;;;0.60;;
28086;SDS011;15392;48.912;8.380;2022-08-19T15:20:11;0.50;;;0.50;;
28086;SDS011;15392;48.912;8.380;2022-08-19T15:23:21;0.70;;;0.70;;
28086;SDS011;15392;48.912;8.380;2022-08-19T15:26:27;0.57;;;0.57;;
28086;SDS011;15392;48.912;8.380;2022-08-19T15:32:44;0.50;;;0.50;;
28086;SDS011;15392;48.912;8.380;2022-08-19T15:35:52;0.47;;;0.47;;
28086;SDS011;15392;48.912;8.380;2022-08-19T15:38:58;0.68;;;0.68;;
28086;SDS011;15392;48.912;8.380;2022-08-19T15:42:05;0.47;;;0.47;;
28086;SDS011;15392;48.912;8.380;2022-08-19T15:45:13;0.55;;;0.55;;
28086;SDS011;15392;48.912;8.380;2022-08-19T15:48:20;0.60;;;0.60;;
28086;SDS011;15392;48.912;8.380;2022-08-19T15:51:29;0.50;;;0.50;;
28086;SDS011;15392;48.912;8.380;2022-08-19T15:54:40;0.60;;;0.60;;
28086;SDS011;15392;48.912;8.380;2022-08-19T15:57:46;0.63;;;0.63;;
28086;SDS011;15392;48.912;8.380;2022-08-19T16:01:11;0.60;;;0.60;;
28086;SDS011;15392;48.912;8.380;2022-08-19T16:04:53;1.33;;;0.60;;
28086;SDS011;15392;48.912;8.380;2022-08-19T16:08:18;0.60;;;0.60;;
28086;SDS011;15392;48.912;8.380;2022-08-19T16:11:25;0.50;;;0.50;;
28086;SDS011;15392;48.912;8.380;2022-08-19T16:14:35;0.70;;;0.70;;
28086;SDS011;15392;48.912;8.380;2022-08-19T16:17:42;0.50;;;0.50;;
28086;SDS011;15392;48.912;8.380;2022-08-19T16:20:49;0.60;;;0.60;;
28086;SDS011;15392;48.912;8.380;2022-08-19T16:23:55;0.70;;;0.70;;
28086;SDS011;15392;48.912;8.380;2022-08-19T16:27:02;0.43;;;0.43;;
28086;SDS011;15392;48.912;8.380;2022-08-19T16:30:08;0.90;;;0.90;;
28086;SDS011;15392;48.912;8.380;2022-08-19T16:33:15;0.90;;;0.90;;
28086;SDS011;15392;48.912;8.380;2022-08-19T16:36:22;0.80;;;0.80;;
28086;SDS011;15392;48.912;8.380;2022-08-19T16:39:29;0.75;;;0.75;;
28086;SDS011;15392;48.912;8.380;2022-08-19T16:42:35;1.20;;;1.08;;
28086;SDS011;15392;48.912;8.380;2022-08-19T16:45:42;1.10;;;1.10;;
28086;SDS011;15392;48.912;8.380;2022-08-19T16:48:48;1.30;;;1.30;;
28086;SDS011;15392;48.912;8.380;2022-08-19T16:51:55;1.20;;;1.20;;
28086;SDS011;15392;48.912;8.380;2022-08-19T16:55:02;1.30;;;1.30;;
28086;SDS011;15392;48.912;8.380;2022-08-19T16:58:10;1.40;;;1.30;;
28086;SDS011;15392;48.912;8.380;2022-08-19T17:01:17;1.80;;;1.40;;
28086;SDS011;15392;48.912;8.380;2022-08-19T17:04:24;2.63;;;1.48;;
28086;SDS011;15392;48.912;8.380;2022-08-19T17:07:30;1.40;;;1.40;;
28086;SDS011;15392;48.912;8.380;2022-08-19T17:10:37;1.20;;;1.20;;
28086;SDS011;15392;48.912;8.380;2022-08-19T17:13:43;1.88;;;1.50;;
28086;SDS011;15392;48.912;8.380;2022-08-19T17:16:50;1.20;;;1.20;;
28086;SDS011;15392;48.912;8.380;2022-08-19T17:19:57;0.98;;;0.98;;
28086;SDS011;15392;48.912;8.380;2022-08-19T17:23:05;1.10;;;1.10;;
28086;SDS011;15392;48.912;8.380;2022-08-19T17:26:12;1.85;;;1.10;;
28086;SDS011;15392;48.912;8.380;2022-08-19T17:29:20;1.02;;;1.02;;
28086;SDS011;15392;48.912;8.380;2022-08-19T17:32:27;0.95;;;0.95;;
28086;SDS011;15392;48.912;8.380;2022-08-19T17:35:33;0.90;;;0.90;;